Time;durP1;ratioP1;P1;durP2;ratioP2;P2;SDS_P1;SDS_P2;PMS_P1;PMS_P2;Temp;Humidity;BMP_temperature;BMP_pressure;BME280_temperature;BME280_humidity;BME280_pressure;Samples;Min_cycle;Max_cycle;Signal;HPM_P1;HPM_P2
2023/11/06 00:01:22;0.00;0.00;0.62;0.00;0.00;0.62;2.00;1.03;;;22.60;29.00;;;;;;2254801;61;20758;-62
2023/11/06 00:04:06;0.00;0.00;0.62;0.00;0.00;0.62;2.90;1.30;;;22.60;29.00;;;;;;2254476;61;20426;-61
2023/11/06 00:06:51;0.00;0.00;0.62;0.00;0.00;0.62;2.20;1.10;;;22.60;29.00;;;;;;2254546;61;20884;-63
2023/11/06 00:09:36;0.00;0.00;0.62;0.00;0.00;0.62;2.33;1.60;;;22.60;28.90;;;;;;2254125;61;20498;-63
2023/11/06 00:12:23;0.00;0.00;0.62;0.00;0.00;0.62;2.40;1.27;;;22.70;29.00;;;;;;2254318;61;20471;-63
2023/11/06 00:15:09;0.00;0.00;0.62;0.00;0.00;0.62;3.40;2.40;;;22.60;29.00;;;;;;2254407;61;20932;-61
2023/11/06 00:17:55;0.00;0.00;0.62;0.00;0.00;0.62;1.70;1.30;;;22.60;29.00;;;;;;2254329;61;20418;-61
2023/11/06 00:20:40;0.00;0.00;0.62;0.00;0.00;0.62;1.90;1.33;;;22.60;29.00;;;;;;2254050;61;20442;-62
2023/11/06 00:23:25;0.00;0.00;0.62;0.00;0.00;0.62;1.90;1.30;;;22.60;29.00;;;;;;2254317;61;20498;-62
2023/11/06 00:26:13;0.00;0.00;0.62;0.00;0.00;0.62;3.30;2.30;;;22.60;29.00;;;;;;2254660;61;20366;-63
2023/11/06 00:29:00;0.00;0.00;0.62;0.00;0.00;0.62;2.10;1.20;;;22.60;29.00;;;;;;2253762;61;20475;-63
2023/11/06 00:31:45;0.00;0.00;0.62;0.00;0.00;0.62;2.13;1.23;;;22.60;29.00;;;;;;2254186;61;20371;-62
2023/11/06 00:34:31;0.00;0.00;0.62;0.00;0.00;0.62;2.30;1.20;;;22.60;29.00;;;;;;2254463;61;20390;-59
2023/11/06 00:37:16;0.00;0.00;0.62;0.00;0.00;0.62;2.00;1.20;;;22.60;29.00;;;;;;2254352;61;20438;-62
2023/11/06 00:40:03;0.00;0.00;0.62;0.00;0.00;0.62;1.90;1.40;;;22.60;29.00;;;;;;2254156;61;20367;-61
2023/11/06 00:42:49;0.00;0.00;0.62;0.00;0.00;0.62;2.43;1.17;;;22.60;29.00;;;;;;2253683;61;20386;-62
2023/11/06 00:45:35;0.00;0.00;0.62;0.00;0.00;0.62;2.50;1.30;;;22.60;29.50;;;;;;2254213;61;20461;-61
2023/11/06 00:48:19;0.00;0.00;0.62;0.00;0.00;0.62;2.17;1.37;;;22.60;29.00;;;;;;2253551;61;20374;-62
2023/11/06 00:51:04;0.00;0.00;0.62;0.00;0.00;0.62;1.73;1.00;;;22.60;29.00;;;;;;2253746;61;20405;-62
2023/11/06 00:53:49;0.00;0.00;0.62;0.00;0.00;0.62;2.10;1.20;;;22.60;29.00;;;;;;2254398;61;20406;-63
2023/11/06 00:56:34;0.00;0.00;0.62;0.00;0.00;0.62;2.17;1.50;;;22.60;29.00;;;;;;2254103;61;20421;-59
2023/11/06 00:59:20;0.00;0.00;0.62;0.00;0.00;0.62;2.13;1.10;;;22.60;29.00;;;;;;2254249;61;20410;-62
2023/11/06 01:02:06;0.00;0.00;0.62;0.00;0.00;0.62;1.80;1.13;;;22.60;29.00;;;;;;2254276;61;20813;-62
2023/11/06 01:04:50;0.00;0.00;0.62;0.00;0.00;0.62;1.90;1.10;;;22.60;29.00;;;;;;2254072;61;20539;-62
2023/11/06 01:07:35;0.00;0.00;0.62;0.00;0.00;0.62;1.80;1.30;;;22.60;29.00;;;;;;2254029;61;20374;-61
2023/11/06 01:10:20;0.00;0.00;0.62;0.00;0.00;0.62;2.17;1.00;;;22.60;29.00;;;;;;2254580;61;20884;-62
2023/11/06 01:13:04;0.00;0.00;0.62;0.00;0.00;0.62;2.10;1.10;;;22.60;29.00;;;;;;2253890;61;20366;-63
2023/11/06 01:15:49;0.00;0.00;0.62;0.00;0.00;0.62;1.90;1.23;;;22.60;29.00;;;;;;2254254;61;20387;-63
2023/11/06 01:18:34;0.00;0.00;0.62;0.00;0.00;0.62;1.73;1.00;;;22.60;29.00;;;;;;2253823;61;20461;-63
2023/11/06 01:21:19;0.00;0.00;0.62;0.00;0.00;0.62;2.00;1.10;;;22.60;29.00;;;;;;2254048;61;20900;-63
2023/11/06 01:24:05;0.00;0.00;0.62;0.00;0.00;0.62;2.60;1.53;;;22.60;29.00;;;;;;2254354;61;21009;-63
2023/11/06 01:26:49;0.00;0.00;0.62;0.00;0.00;0.62;1.90;1.30;;;22.60;29.00;;;;;;2253593;61;20386;-62
2023/11/06 01:29:34;0.00;0.00;0.62;0.00;0.00;0.62;1.83;1.30;;;22.60;29.00;;;;;;2253628;61;20366;-62
2023/11/06 01:32:20;0.00;0.00;0.62;0.00;0.00;0.62;2.37;1.60;;;22.60;29.00;;;;;;2253767;61;20458;-61
2023/11/06 01:35:07;0.00;0.00;0.62;0.00;0.00;0.62;2.10;1.30;;;22.60;29.00;;;;;;2253692;61;20394;-63
2023/11/06 01:37:52;0.00;0.00;0.62;0.00;0.00;0.62;2.10;1.50;;;22.60;29.00;;;;;;2253555;61;20445;-62
2023/11/06 01:40:36;0.00;0.00;0.62;0.00;0.00;0.62;2.27;1.23;;;22.50;28.90;;;;;;2253568;61;20359;-61
2023/11/06 01:43:24;0.00;0.00;0.62;0.00;0.00;0.62;2.13;1.30;;;22.60;29.00;;;;;;2254077;61;20477;-63
2023/11/06 01:46:11;0.00;0.00;0.62;0.00;0.00;0.62;3.83;1.53;;;22.60;29.00;;;;;;2253832;61;20366;-62
2023/11/06 01:48:55;0.00;0.00;0.62;0.00;0.00;0.62;2.30;1.20;;;22.60;29.00;;;;;;2255911;61;20439;-62
2023/11/06 01:51:42;0.00;0.00;0.62;0.00;0.00;0.62;2.07;1.10;;;22.50;28.90;;;;;;2258199;61;20430;-62
2023/11/06 01:54:26;0.00;0.00;0.62;0.00;0.00;0.62;1.77;1.27;;;22.60;29.00;;;;;;2257540;61;20436;-62
2023/11/06 01:57:15;0.00;0.00;0.62;0.00;0.00;0.62;2.73;1.20;;;22.50;29.00;;;;;;2257716;61;20362;-63
2023/11/06 02:00:00;0.00;0.00;0.62;0.00;0.00;0.62;2.77;1.47;;;22.50;28.90;;;;;;2257508;61;20446;-66
2023/11/06 02:02:46;0.00;0.00;0.62;0.00;0.00;0.62;2.70;1.50;;;22.50;28.90;;;;;;2255051;61;20381;-62
2023/11/06 02:05:31;0.00;0.00;0.62;0.00;0.00;0.62;2.27;1.20;;;22.50;28.90;;;;;;2257909;61;20848;-64
2023/11/06 02:08:17;0.00;0.00;0.62;0.00;0.00;0.62;3.83;1.77;;;22.50;28.90;;;;;;2257534;61;20362;-62
2023/11/06 02:11:03;0.00;0.00;0.62;0.00;0.00;0.62;2.00;1.23;;;22.50;28.90;;;;;;2258072;61;20443;-63
2023/11/06 02:13:48;0.00;0.00;0.62;0.00;0.00;0.62;2.03;1.30;;;22.50;28.90;;;;;;2258148;61;20428;-62
2023/11/06 02:16:32;0.00;0.00;0.62;0.00;0.00;0.62;2.30;1.20;;;22.50;28.90;;;;;;2253720;61;20450;-63
2023/11/06 02:19:17;0.00;0.00;0.62;0.00;0.00;0.62;1.70;1.17;;;22.50;28.90;;;;;;2253045;61;20455;-62
2023/11/06 02:22:02;0.00;0.00;0.62;0.00;0.00;0.62;3.30;1.40;;;22.50;28.90;;;;;;2249395;61;20967;-62
2023/11/06 02:24:49;0.00;0.00;0.62;0.00;0.00;0.62;2.00;1.17;;;22.50;28.90;;;;;;2257264;61;20525;-63
2023/11/06 02:27:34;0.00;0.00;0.62;0.00;0.00;0.62;2.13;1.10;;;22.50;28.90;;;;;;2257614;61;20802;-63
2023/11/06 02:30:18;0.00;0.00;0.62;0.00;0.00;0.62;1.97;1.20;;;22.50;28.90;;;;;;2257740;61;20446;-63
2023/11/06 02:33:03;0.00;0.00;0.62;0.00;0.00;0.62;2.57;1.50;;;22.50;29.00;;;;;;2257785;61;20357;-61
2023/11/06 02:35:48;0.00;0.00;0.62;0.00;0.00;0.62;1.80;1.10;;;22.50;28.90;;;;;;2257335;61;20478;-62
2023/11/06 02:38:33;0.00;0.00;0.62;0.00;0.00;0.62;1.90;1.27;;;22.50;28.90;;;;;;2257681;61;20389;-62
2023/11/06 02:41:19;0.00;0.00;0.62;0.00;0.00;0.62;2.30;1.10;;;22.50;28.90;;;;;;2257373;61;20364;-62
2023/11/06 02:44:04;0.00;0.00;0.62;0.00;0.00;0.62;1.80;1.53;;;22.50;28.90;;;;;;2257823;61;20394;-62
2023/11/06 02:46:48;0.00;0.00;0.62;0.00;0.00;0.62;1.67;1.20;;;22.50;28.90;;;;;;2683127;45;20391;-61
2023/11/06 02:49:33;0.00;0.00;0.62;0.00;0.00;0.62;3.50;1.47;;;22.50;28.90;;;;;;2249366;61;20388;-62
2023/11/06 02:52:18;0.00;0.00;0.62;0.00;0.00;0.62;1.90;1.30;;;22.50;28.90;;;;;;2249509;61;20410;-60
2023/11/06 02:55:04;0.00;0.00;0.62;0.00;0.00;0.62;1.90;1.00;;;22.50;28.90;;;;;;2250318;61;20418;-61
2023/11/06 02:57:50;0.00;0.00;0.62;0.00;0.00;0.62;1.80;1.10;;;22.50;28.90;;;;;;2249837;61;20367;-62
2023/11/06 03:00:35;0.00;0.00;0.62;0.00;0.00;0.62;2.07;1.20;;;22.50;28.90;;;;;;2249886;61;20507;-62
2023/11/06 03:03:20;0.00;0.00;0.62;0.00;0.00;0.62;1.70;1.00;;;22.50;28.90;;;;;;2249604;61;20404;-61
2023/11/06 03:06:06;0.00;0.00;0.62;0.00;0.00;0.62;1.93;1.23;;;22.50;28.90;;;;;;2250027;61;20944;-62
2023/11/06 03:08:51;0.00;0.00;0.62;0.00;0.00;0.62;1.80;1.10;;;22.50;28.90;;;;;;2252173;61;20410;-60
2023/11/06 03:11:36;0.00;0.00;0.62;0.00;0.00;0.62;1.43;0.90;;;22.50;28.90;;;;;;2250073;61;20367;-61
2023/11/06 03:14:22;0.00;0.00;0.62;0.00;0.00;0.62;1.90;0.90;;;22.50;28.90;;;;;;2250575;61;20387;-61
2023/11/06 03:17:07;0.00;0.00;0.62;0.00;0.00;0.62;2.77;1.10;;;22.50;29.00;;;;;;2250419;61;20877;-62
2023/11/06 03:19:52;0.00;0.00;0.62;0.00;0.00;0.62;3.00;1.30;;;22.50;28.90;;;;;;2249905;61;20367;-62
2023/11/06 03:22:37;0.00;0.00;0.62;0.00;0.00;0.62;1.70;1.10;;;22.50;28.90;;;;;;2250754;61;20382;-61
2023/11/06 03:25:22;0.00;0.00;0.62;0.00;0.00;0.62;2.53;1.20;;;22.50;28.90;;;;;;2250397;61;20435;-64
2023/11/06 03:28:08;0.00;0.00;0.62;0.00;0.00;0.62;1.50;1.03;;;22.50;28.90;;;;;;2252514;61;20419;-61
2023/11/06 03:30:54;0.00;0.00;0.62;0.00;0.00;0.62;1.87;1.13;;;22.50;28.90;;;;;;2250370;61;20898;-63
2023/11/06 03:33:40;0.00;0.00;0.62;0.00;0.00;0.62;1.67;0.97;;;22.50;28.90;;;;;;2252541;61;20418;-61
2023/11/06 03:36:25;0.00;0.00;0.62;0.00;0.00;0.62;1.80;1.20;;;22.50;28.90;;;;;;2250216;61;20366;-61
2023/11/06 03:39:10;0.00;0.00;0.62;0.00;0.00;0.62;1.80;1.07;;;22.50;28.90;;;;;;2249552;61;20929;-61
2023/11/06 03:41:54;0.00;0.00;0.62;0.00;0.00;0.62;2.70;1.07;;;22.50;28.90;;;;;;2249940;61;20456;-63
2023/11/06 03:44:39;0.00;0.00;0.62;0.00;0.00;0.62;2.00;1.30;;;22.50;28.90;;;;;;2250944;61;20384;-61
2023/11/06 03:47:25;0.00;0.00;0.62;0.00;0.00;0.62;1.50;0.80;;;22.50;28.90;;;;;;2250351;61;20359;-61
2023/11/06 03:50:09;0.00;0.00;0.62;0.00;0.00;0.62;1.70;1.00;;;22.50;28.90;;;;;;2249936;61;20506;-61
2023/11/06 03:52:54;0.00;0.00;0.62;0.00;0.00;0.62;1.50;1.03;;;22.50;28.90;;;;;;2250778;61;20394;-61
2023/11/06 03:55:39;0.00;0.00;0.62;0.00;0.00;0.62;1.80;1.00;;;22.50;28.90;;;;;;2250355;61;20411;-62
2023/11/06 03:58:24;0.00;0.00;0.62;0.00;0.00;0.62;2.57;1.13;;;22.50;29.00;;;;;;2250279;61;20390;-62
2023/11/06 04:01:09;0.00;0.00;0.62;0.00;0.00;0.62;2.83;1.20;;;22.50;28.90;;;;;;2252566;61;20371;-62
2023/11/06 04:03:59;0.00;0.00;0.62;0.00;0.00;0.62;2.30;1.20;;;22.50;28.90;;;;;;2250467;61;20447;-61
2023/11/06 04:06:44;0.00;0.00;0.62;0.00;0.00;0.62;1.73;1.13;;;22.50;29.00;;;;;;2250406;61;20391;-62
2023/11/06 04:09:29;0.00;0.00;0.62;0.00;0.00;0.62;1.87;1.10;;;22.50;28.90;;;;;;2249710;61;20375;-63
2023/11/06 04:12:13;0.00;0.00;0.62;0.00;0.00;0.62;2.07;1.13;;;22.40;28.90;;;;;;2250588;61;20383;-61
2023/11/06 04:14:58;0.00;0.00;0.62;0.00;0.00;0.62;1.60;1.00;;;22.50;28.90;;;;;;2252766;61;20443;-62
2023/11/06 04:17:43;0.00;0.00;0.62;0.00;0.00;0.62;1.73;1.00;;;22.40;29.40;;;;;;2250292;61;20391;-62
2023/11/06 04:20:29;0.00;0.00;0.62;0.00;0.00;0.62;1.83;0.90;;;22.50;28.90;;;;;;2250350;61;20367;-62
2023/11/06 04:23:13;0.00;0.00;0.62;0.00;0.00;0.62;1.60;0.90;;;22.50;28.90;;;;;;2252698;61;20411;-62
2023/11/06 04:25:58;0.00;0.00;0.62;0.00;0.00;0.62;2.47;1.53;;;22.40;28.90;;;;;;2250368;61;20841;-62
2023/11/06 04:28:43;0.00;0.00;0.62;0.00;0.00;0.62;1.40;0.80;;;22.40;28.90;;;;;;2249924;61;20502;-62
2023/11/06 04:31:27;0.00;0.00;0.62;0.00;0.00;0.62;1.50;1.00;;;22.40;28.90;;;;;;2249804;61;20372;-63
2023/11/06 04:34:12;0.00;0.00;0.62;0.00;0.00;0.62;2.20;1.00;;;22.40;28.90;;;;;;2252718;61;20383;-63
2023/11/06 04:36:58;0.00;0.00;0.62;0.00;0.00;0.62;1.97;1.30;;;22.50;28.90;;;;;;2250178;61;20395;-61
2023/11/06 04:39:43;0.00;0.00;0.62;0.00;0.00;0.62;1.83;1.30;;;22.40;28.90;;;;;;2249827;61;20371;-62
2023/11/06 04:42:28;0.00;0.00;0.62;0.00;0.00;0.62;2.00;1.00;;;22.50;28.90;;;;;;2250278;61;20387;-62
2023/11/06 04:45:12;0.00;0.00;0.62;0.00;0.00;0.62;2.60;1.10;;;22.40;28.90;;;;;;2250076;61;20395;-62
2023/11/06 04:47:57;0.00;0.00;0.62;0.00;0.00;0.62;1.80;1.07;;;22.40;28.90;;;;;;2252045;61;20402;-62
2023/11/06 04:50:41;0.00;0.00;0.62;0.00;0.00;0.62;1.80;1.00;;;22.40;28.90;;;;;;2250036;61;20383;-62
2023/11/06 04:53:27;0.00;0.00;0.62;0.00;0.00;0.62;1.63;1.00;;;22.50;28.90;;;;;;2249806;61;20439;-62
2023/11/06 04:56:12;0.00;0.00;0.62;0.00;0.00;0.62;1.53;1.00;;;22.40;28.90;;;;;;2250389;61;20371;-62
2023/11/06 04:58:57;0.00;0.00;0.62;0.00;0.00;0.62;1.60;1.00;;;22.40;28.90;;;;;;2249342;61;20481;-64
2023/11/06 05:01:42;0.00;0.00;0.62;0.00;0.00;0.62;1.73;0.93;;;22.40;28.90;;;;;;2249724;61;20904;-62
2023/11/06 05:04:27;0.00;0.00;0.62;0.00;0.00;0.62;1.53;0.90;;;22.40;28.90;;;;;;2250104;61;20446;-63
2023/11/06 05:07:11;0.00;0.00;0.62;0.00;0.00;0.62;2.63;1.13;;;22.50;28.90;;;;;;2250227;61;20364;-63
2023/11/06 05:09:57;0.00;0.00;0.62;0.00;0.00;0.62;1.63;0.93;;;22.40;28.90;;;;;;2249783;61;20436;-63
2023/11/06 05:12:42;0.00;0.00;0.62;0.00;0.00;0.62;1.80;1.00;;;22.40;28.90;;;;;;2249963;61;20480;-63
2023/11/06 05:15:26;0.00;0.00;0.62;0.00;0.00;0.62;2.00;1.10;;;22.40;28.90;;;;;;2249907;61;20983;-63
2023/11/06 05:18:11;0.00;0.00;0.62;0.00;0.00;0.62;1.80;1.20;;;22.40;28.90;;;;;;2249898;61;20492;-63
2023/11/06 05:20:56;0.00;0.00;0.62;0.00;0.00;0.62;2.10;1.30;;;22.40;28.90;;;;;;2250281;61;20412;-62
2023/11/06 05:23:41;0.00;0.00;0.62;0.00;0.00;0.62;1.70;1.20;;;22.40;28.90;;;;;;2249841;61;20411;-62
2023/11/06 05:26:27;0.00;0.00;0.62;0.00;0.00;0.62;2.80;1.33;;;22.40;28.90;;;;;;2250363;61;20380;-62
2023/11/06 05:29:11;0.00;0.00;0.62;0.00;0.00;0.62;2.03;1.33;;;22.40;28.90;;;;;;2249838;61;20367;-63
2023/11/06 05:31:56;0.00;0.00;0.62;0.00;0.00;0.62;2.00;1.30;;;22.40;28.90;;;;;;2250122;61;20419;-62
2023/11/06 05:34:41;0.00;0.00;0.62;0.00;0.00;0.62;2.33;1.30;;;22.40;28.90;;;;;;2250106;61;20387;-62
2023/11/06 05:37:27;0.00;0.00;0.62;0.00;0.00;0.62;2.03;1.60;;;22.40;28.90;;;;;;2249932;61;20395;-64
2023/11/06 05:40:12;0.00;0.00;0.62;0.00;0.00;0.62;3.00;1.93;;;22.40;28.90;;;;;;2249922;61;20367;-61
2023/11/06 05:42:58;0.00;0.00;0.62;0.00;0.00;0.62;3.77;2.27;;;22.40;28.90;;;;;;2252497;61;20940;-61
2023/11/06 05:45:43;0.00;0.00;0.62;0.00;0.00;0.62;4.90;2.30;;;22.40;28.90;;;;;;2249850;61;20807;-62
2023/11/06 05:48:27;0.00;0.00;0.62;0.00;0.00;0.62;3.30;2.07;;;22.40;28.90;;;;;;2249672;61;20367;-62
2023/11/06 05:51:12;0.00;0.00;0.62;0.00;0.00;0.62;5.00;2.40;;;22.40;28.90;;;;;;2249992;61;20352;-62
2023/11/06 05:53:57;0.00;0.00;0.62;0.00;0.00;0.62;3.50;2.60;;;22.40;28.90;;;;;;2249671;61;20383;-62
2023/11/06 05:56:41;0.00;0.00;0.62;0.00;0.00;0.62;2.97;2.20;;;22.40;28.90;;;;;;2250067;61;20370;-62
2023/11/06 05:59:27;0.00;0.00;0.62;0.00;0.00;0.62;3.83;1.73;;;22.40;28.90;;;;;;2249641;61;20363;-63
2023/11/06 06:02:12;0.00;0.00;0.62;0.00;0.00;0.62;4.20;2.73;;;22.40;28.90;;;;;;2249921;61;20372;-61
2023/11/06 06:04:57;0.00;0.00;0.62;0.00;0.00;0.62;2.90;2.00;;;22.40;28.90;;;;;;2250030;61;20798;-63
2023/11/06 06:07:41;0.00;0.00;0.62;0.00;0.00;0.62;3.30;2.40;;;22.40;29.00;;;;;;2249895;61;20378;-62
2023/11/06 06:10:26;0.00;0.00;0.62;0.00;0.00;0.62;3.30;2.60;;;22.40;28.90;;;;;;2252368;61;20400;-62
2023/11/06 06:13:11;0.00;0.00;0.62;0.00;0.00;0.62;3.60;2.53;;;22.40;28.90;;;;;;2250311;61;20909;-62
2023/11/06 06:15:57;0.00;0.00;0.62;0.00;0.00;0.62;4.07;2.80;;;22.40;28.90;;;;;;2249867;61;20375;-62
2023/11/06 06:18:42;0.00;0.00;0.62;0.00;0.00;0.62;3.87;2.50;;;22.40;28.90;;;;;;2249715;61;20372;-61
2023/11/06 06:21:26;0.00;0.00;0.62;0.00;0.00;0.62;2.73;2.20;;;22.40;28.90;;;;;;2250204;61;20876;-65
2023/11/06 06:24:11;0.00;0.00;0.62;0.00;0.00;0.62;3.30;2.47;;;22.40;28.90;;;;;;2252005;61;20391;-62
2023/11/06 06:26:57;0.00;0.00;0.62;0.00;0.00;0.62;3.00;2.10;;;22.40;28.90;;;;;;2249738;61;20819;-60
2023/11/06 06:29:44;0.00;0.00;0.62;0.00;0.00;0.62;3.43;2.50;;;22.40;29.00;;;;;;2249682;61;20372;-59
2023/11/06 06:32:30;0.00;0.00;0.62;0.00;0.00;0.62;3.03;2.00;;;22.40;29.00;;;;;;2249713;61;20367;-63
2023/11/06 06:35:15;0.00;0.00;0.62;0.00;0.00;0.62;3.03;2.50;;;22.40;29.00;;;;;;2249312;61;20431;-63
2023/11/06 06:38:01;0.00;0.00;0.62;0.00;0.00;0.62;3.30;2.30;;;22.40;29.00;;;;;;2249662;61;20382;-61
2023/11/06 06:40:49;0.00;0.00;0.62;0.00;0.00;0.62;2.80;2.20;;;22.40;29.00;;;;;;2249900;61;20367;-63
2023/11/06 06:43:35;0.00;0.00;0.62;0.00;0.00;0.62;3.30;2.20;;;22.40;29.00;;;;;;2249697;61;20438;-64
2023/11/06 06:46:19;0.00;0.00;0.62;0.00;0.00;0.62;2.20;1.70;;;22.40;29.00;;;;;;2249609;61;20401;-62
2023/11/06 06:49:05;0.00;0.00;0.62;0.00;0.00;0.62;3.33;2.33;;;22.40;29.00;;;;;;2249626;61;20415;-63
2023/11/06 06:51:50;0.00;0.00;0.62;0.00;0.00;0.62;3.43;2.43;;;22.40;29.00;;;;;;2249969;61;20983;-62
2023/11/06 06:54:34;0.00;0.00;0.62;0.00;0.00;0.62;3.43;2.20;;;22.40;29.00;;;;;;2252130;61;20475;-62
2023/11/06 06:57:19;0.00;0.00;0.62;0.00;0.00;0.62;4.13;2.87;;;22.40;29.00;;;;;;2249955;61;20418;-61
2023/11/06 07:00:08;0.00;0.00;0.62;0.00;0.00;0.62;4.37;2.27;;;22.30;28.90;;;;;;2249043;61;20379;-64
2023/11/06 07:02:53;0.00;0.00;0.62;0.00;0.00;0.62;2.77;2.10;;;22.30;29.30;;;;;;2249989;61;20479;-60
2023/11/06 07:05:39;0.00;0.00;0.62;0.00;0.00;0.62;3.30;2.07;;;22.30;28.90;;;;;;2249618;61;20387;-62
2023/11/06 07:08:23;0.00;0.00;0.62;0.00;0.00;0.62;2.80;2.13;;;22.30;28.90;;;;;;2251723;61;20444;-63
2023/11/06 07:11:08;0.00;0.00;0.62;0.00;0.00;0.62;3.93;2.80;;;22.30;28.90;;;;;;2249791;61;20370;-63
2023/11/06 07:13:53;0.00;0.00;0.62;0.00;0.00;0.62;3.93;2.80;;;22.40;29.00;;;;;;2249753;61;20395;-62
2023/11/06 07:16:38;0.00;0.00;0.62;0.00;0.00;0.62;4.00;3.03;;;22.30;28.90;;;;;;2250067;61;20398;-62
2023/11/06 07:19:24;0.00;0.00;0.62;0.00;0.00;0.62;5.60;3.10;;;22.30;28.90;;;;;;2249813;61;20399;-62
2023/11/06 07:22:11;0.00;0.00;0.62;0.00;0.00;0.62;4.80;3.37;;;22.30;28.90;;;;;;2249608;61;20384;-62
2023/11/06 07:24:56;0.00;0.00;0.62;0.00;0.00;0.62;4.40;3.77;;;22.30;28.90;;;;;;2249978;61;20391;-62
2023/11/06 07:27:42;0.00;0.00;0.62;0.00;0.00;0.62;4.83;3.80;;;22.40;29.00;;;;;;2249972;61;20368;-62
2023/11/06 07:30:27;0.00;0.00;0.62;0.00;0.00;0.62;5.50;4.10;;;22.30;28.90;;;;;;2249414;61;20887;-59
2023/11/06 07:33:11;0.00;0.00;0.62;0.00;0.00;0.62;4.90;4.40;;;22.40;29.00;;;;;;2249687;61;20387;-61
2023/11/06 07:35:56;0.00;0.00;0.62;0.00;0.00;0.62;4.63;4.00;;;22.30;28.90;;;;;;2251981;61;20367;-62
2023/11/06 07:38:42;0.00;0.00;0.62;0.00;0.00;0.62;5.30;4.10;;;22.30;28.90;;;;;;2251462;61;20780;-62
2023/11/06 07:41:27;0.00;0.00;0.62;0.00;0.00;0.62;5.97;4.33;;;22.30;28.90;;;;;;2249680;61;20363;-62
2023/11/06 07:44:11;0.00;0.00;0.62;0.00;0.00;0.62;5.97;4.70;;;22.30;29.00;;;;;;2249995;61;20454;-62
2023/11/06 07:46:56;0.00;0.00;0.62;0.00;0.00;0.62;5.33;4.37;;;22.30;29.00;;;;;;2249497;61;20499;-61
2023/11/06 07:49:40;0.00;0.00;0.62;0.00;0.00;0.62;5.43;4.07;;;22.30;29.00;;;;;;2256157;61;20380;-64
2023/11/06 07:52:25;0.00;0.00;0.62;0.00;0.00;0.62;5.30;4.27;;;22.30;29.00;;;;;;2258031;61;20370;-62
2023/11/06 07:55:11;0.00;0.00;0.62;0.00;0.00;0.62;5.20;4.40;;;22.40;29.00;;;;;;2257137;61;20389;-62
2023/11/06 07:57:56;0.00;0.00;0.62;0.00;0.00;0.62;4.50;3.83;;;22.30;29.00;;;;;;2257729;61;20378;-62
2023/11/06 08:00:41;0.00;0.00;0.62;0.00;0.00;0.62;6.50;5.40;;;22.30;29.00;;;;;;2258203;61;20874;-62
2023/11/06 08:03:26;0.00;0.00;0.62;0.00;0.00;0.62;6.00;4.70;;;22.30;29.00;;;;;;2258758;61;20401;-62
2023/11/06 08:06:10;0.00;0.00;0.62;0.00;0.00;0.62;6.63;5.17;;;22.30;29.00;;;;;;2258375;61;20369;-62
2023/11/06 08:08:54;0.00;0.00;0.62;0.00;0.00;0.62;7.30;5.50;;;22.30;29.00;;;;;;2258366;61;20802;-63
2023/11/06 08:11:40;0.00;0.00;0.62;0.00;0.00;0.62;6.50;5.37;;;22.30;29.00;;;;;;2258554;61;20366;-62
2023/11/06 08:14:25;0.00;0.00;0.62;0.00;0.00;0.62;5.07;4.17;;;22.30;29.00;;;;;;2258501;61;20390;-62
2023/11/06 08:17:09;0.00;0.00;0.62;0.00;0.00;0.62;6.30;4.40;;;22.30;29.00;;;;;;2258255;61;20425;-60
2023/11/06 08:19:54;0.00;0.00;0.62;0.00;0.00;0.62;6.40;5.00;;;22.30;29.00;;;;;;2258324;61;20373;-61
2023/11/06 08:22:39;0.00;0.00;0.62;0.00;0.00;0.62;6.33;4.77;;;22.30;29.00;;;;;;2257673;61;20832;-65
2023/11/06 08:25:26;0.00;0.00;0.62;0.00;0.00;0.62;5.90;5.13;;;22.30;29.00;;;;;;2258443;61;20991;-62
2023/11/06 08:28:12;0.00;0.00;0.62;0.00;0.00;0.62;4.90;4.40;;;22.30;29.00;;;;;;2257414;61;20350;-62
2023/11/06 08:30:57;0.00;0.00;0.62;0.00;0.00;0.62;6.10;4.60;;;22.30;29.00;;;;;;2258473;61;20369;-61
2023/11/06 08:33:42;0.00;0.00;0.62;0.00;0.00;0.62;14.70;6.30;;;22.30;29.00;;;;;;2258188;61;20385;-62
2023/11/06 08:36:26;0.00;0.00;0.62;0.00;0.00;0.62;6.43;4.80;;;22.40;29.10;;;;;;2257943;61;20504;-61
2023/11/06 08:39:12;0.00;0.00;0.62;0.00;0.00;0.62;5.50;4.90;;;22.30;29.00;;;;;;2257500;61;20404;-62
2023/11/06 08:41:56;0.00;0.00;0.62;0.00;0.00;0.62;6.40;4.83;;;22.30;29.00;;;;;;2258362;61;20413;-62
2023/11/06 08:44:42;0.00;0.00;0.62;0.00;0.00;0.62;6.47;4.73;;;22.30;29.00;;;;;;2257527;61;20397;-62
2023/11/06 08:47:27;0.00;0.00;0.62;0.00;0.00;0.62;6.80;4.80;;;22.30;29.00;;;;;;2258139;61;20374;-62
2023/11/06 08:50:12;0.00;0.00;0.62;0.00;0.00;0.62;5.40;4.90;;;22.30;29.00;;;;;;2258001;61;20366;-61
2023/11/06 08:52:57;0.00;0.00;0.62;0.00;0.00;0.62;6.67;5.37;;;22.40;29.10;;;;;;2258694;61;20454;-62
2023/11/06 08:55:42;0.00;0.00;0.62;0.00;0.00;0.62;6.87;5.83;;;22.40;29.10;;;;;;2257974;61;20381;-61
2023/11/06 08:58:27;0.00;0.00;0.62;0.00;0.00;0.62;6.63;5.23;;;22.30;29.00;;;;;;2257533;61;20417;-65
2023/11/06 09:01:12;0.00;0.00;0.62;0.00;0.00;0.62;6.37;4.60;;;22.40;29.10;;;;;;2257875;61;20756;-61
2023/11/06 09:03:57;0.00;0.00;0.62;0.00;0.00;0.62;6.53;4.97;;;22.30;29.00;;;;;;2257799;61;20399;-62
2023/11/06 09:06:42;0.00;0.00;0.62;0.00;0.00;0.62;5.23;4.30;;;22.30;29.00;;;;;;2257648;61;20409;-63
2023/11/06 09:09:26;0.00;0.00;0.62;0.00;0.00;0.62;5.83;4.97;;;22.40;29.10;;;;;;2257190;61;20370;-61
2023/11/06 09:12:11;0.00;0.00;0.62;0.00;0.00;0.62;6.40;4.70;;;22.40;29.10;;;;;;2257958;61;20362;-63
2023/11/06 09:14:55;0.00;0.00;0.62;0.00;0.00;0.62;7.50;4.90;;;22.40;29.10;;;;;;2258129;61;20946;-62
2023/11/06 09:17:41;0.00;0.00;0.62;0.00;0.00;0.62;6.00;4.40;;;22.40;29.10;;;;;;2257924;61;20388;-59
2023/11/06 09:20:26;0.00;0.00;0.62;0.00;0.00;0.62;5.60;3.87;;;22.40;29.00;;;;;;2257625;61;20404;-61
2023/11/06 09:23:11;0.00;0.00;0.62;0.00;0.00;0.62;5.40;4.60;;;22.40;29.00;;;;;;2254817;61;20464;-62
2023/11/06 09:25:57;0.00;0.00;0.62;0.00;0.00;0.62;5.00;4.43;;;22.40;29.00;;;;;;2258275;61;20378;-62
2023/11/06 09:28:42;0.00;0.00;0.62;0.00;0.00;0.62;4.63;4.03;;;22.40;29.10;;;;;;2257418;61;20471;-62
2023/11/06 09:31:27;0.00;0.00;0.62;0.00;0.00;0.62;5.50;4.47;;;22.40;29.00;;;;;;2258367;61;20369;-61
2023/11/06 09:34:14;0.00;0.00;0.62;0.00;0.00;0.62;4.77;3.90;;;22.40;29.00;;;;;;2257847;61;20431;-62
2023/11/06 09:36:58;0.00;0.00;0.62;0.00;0.00;0.62;4.60;4.10;;;22.40;29.00;;;;;;2257959;61;20783;-63
2023/11/06 09:39:43;0.00;0.00;0.62;0.00;0.00;0.62;6.77;4.77;;;22.40;29.00;;;;;;2258032;61;20358;-59
2023/11/06 09:42:29;0.00;0.00;0.62;0.00;0.00;0.62;4.50;3.93;;;22.40;29.00;;;;;;2257612;61;20409;-61
2023/11/06 09:45:15;0.00;0.00;0.62;0.00;0.00;0.62;6.50;4.33;;;22.40;29.00;;;;;;2258008;61;20377;-62
2023/11/06 09:48:02;0.00;0.00;0.62;0.00;0.00;0.62;4.93;4.10;;;22.40;29.00;;;;;;2258045;61;20369;-61
2023/11/06 09:50:50;0.00;0.00;0.62;0.00;0.00;0.62;5.50;4.80;;;22.40;29.00;;;;;;2257578;61;20409;-61
2023/11/06 09:53:35;0.00;0.00;0.62;0.00;0.00;0.62;5.70;4.50;;;22.40;29.00;;;;;;2257941;61;20420;-62
2023/11/06 09:56:19;0.00;0.00;0.62;0.00;0.00;0.62;6.53;4.47;;;22.40;29.00;;;;;;2258468;61;20453;-66
2023/11/06 09:59:04;0.00;0.00;0.62;0.00;0.00;0.62;4.07;3.67;;;22.40;29.00;;;;;;2258012;61;20484;-62
2023/11/06 10:01:53;0.00;0.00;0.62;0.00;0.00;0.62;4.57;4.00;;;22.40;29.00;;;;;;2258185;61;20370;-62
2023/11/06 10:04:37;0.00;0.00;0.62;0.00;0.00;0.62;7.00;4.10;;;22.40;29.00;;;;;;2257969;61;20408;-62
2023/11/06 10:10:21;0.00;0.00;0.62;0.00;0.00;0.62;3.67;3.13;;;22.40;29.00;;;;;;1567764;89;20509;-62
2023/11/06 10:13:09;0.00;0.00;0.62;0.00;0.00;0.62;4.70;3.40;;;22.40;29.00;;;;;;2269563;61;20881;-61
2023/11/06 10:15:55;0.00;0.00;0.62;0.00;0.00;0.62;5.87;3.70;;;22.40;29.00;;;;;;2269495;61;20510;-62
2023/11/06 10:18:40;0.00;0.00;0.62;0.00;0.00;0.62;4.27;3.50;;;22.40;29.00;;;;;;2269053;61;20356;-62
2023/11/06 10:21:28;0.00;0.00;0.62;0.00;0.00;0.62;4.47;3.63;;;22.40;29.00;;;;;;2269579;61;20390;-62
2023/11/06 10:24:13;0.00;0.00;0.62;0.00;0.00;0.62;3.80;3.30;;;22.40;29.00;;;;;;2269586;61;20383;-62
2023/11/06 10:27:00;0.00;0.00;0.62;0.00;0.00;0.62;5.13;3.23;;;22.40;29.00;;;;;;2269075;61;20366;-63
2023/11/06 10:29:57;0.00;0.00;0.62;0.00;0.00;0.62;4.70;3.17;;;22.40;29.10;;;;;;2268974;61;20387;-60
2023/11/06 10:32:41;0.00;0.00;0.62;0.00;0.00;0.62;3.20;2.80;;;22.40;29.10;;;;;;2269416;61;20922;-60
2023/11/06 10:35:26;0.00;0.00;0.62;0.00;0.00;0.62;4.43;3.00;;;22.40;29.10;;;;;;2269584;61;20406;-62
2023/11/06 10:38:28;0.00;0.00;0.62;0.00;0.00;0.62;3.30;2.93;;;22.40;29.10;;;;;;2269199;61;20858;-62
2023/11/06 10:41:24;0.00;0.00;0.62;0.00;0.00;0.62;4.77;3.03;;;22.40;29.10;;;;;;2269286;61;20355;-61
2023/11/06 10:44:11;0.00;0.00;0.62;0.00;0.00;0.62;3.50;2.80;;;22.40;29.10;;;;;;2269245;61;20425;-66
2023/11/06 10:46:56;0.00;0.00;0.62;0.00;0.00;0.62;3.83;3.03;;;22.40;29.10;;;;;;2269057;61;20364;-60
2023/11/06 10:49:49;0.00;0.00;0.62;0.00;0.00;0.62;3.97;3.00;;;22.40;29.10;;;;;;2268664;61;20386;-57
2023/11/06 10:52:34;0.00;0.00;0.62;0.00;0.00;0.62;4.80;3.17;;;22.40;29.10;;;;;;2269045;61;20445;-61
2023/11/06 10:55:22;0.00;0.00;0.62;0.00;0.00;0.62;2.80;2.43;;;22.40;29.10;;;;;;2269238;61;20383;-59